Time;durP1;ratioP1;P1;durP2;ratioP2;P2;SDS_P1;SDS_P2;PMS_P1;PMS_P2;Temp;Humidity;BMP_temperature;BMP_pressure;BME280_temperature;BME280_humidity;BME280_pressure;Samples;Min_cycle;Max_cycle;Signal;HPM_P1;HPM_P2
2021/01/24 00:02:18;;;;;;;;;;;;;;;27.57;30.16;99923.88;5097285;28;496;-34
2021/01/24 00:04:43;;;;;;;;;;;;;;;27.58;30.13;99927.41;5097205;28;1901;-31
2021/01/24 00:07:27;;;;;;;;;;;;;;;27.59;30.29;99932.59;5097159;28;938;-35
2021/01/24 00:09:53;;;;;;;;;;;;;;;27.57;30.19;99925.75;5097454;28;795;-32
2021/01/24 00:12:18;;;;;;;;;;;;;;;27.56;30.07;99929.50;5097192;28;740;-32
2021/01/24 00:14:43;;;;;;;;;;;;;;;27.51;30.68;99924.69;5097363;28;815;-36
2021/01/24 00:17:08;;;;;;;;;;;;;;;27.50;30.70;99914.94;5097649;28;1098;-36
2021/01/24 00:19:34;;;;;;;;;;;;;;;27.51;30.77;99913.88;5097112;28;755;-28
2021/01/24 00:21:59;;;;;;;;;;;;;;;27.54;30.45;99920.75;5094839;28;954;-35
2021/01/24 00:24:24;;;;;;;;;;;;;;;27.53;30.44;99911.00;5076918;28;1898;-31
2021/01/24 00:26:50;;;;;;;;;;;;;;;27.52;30.63;99910.16;5076600;28;803;-31
2021/01/24 00:29:15;;;;;;;;;;;;;;;27.50;30.61;99904.13;5076676;28;850;-28
2021/01/24 00:31:40;;;;;;;;;;;;;;;27.49;30.74;99908.69;5076876;28;787;-30
2021/01/24 00:34:05;;;;;;;;;;;;;;;27.45;30.97;99896.66;5076478;28;913;-32
2021/01/24 00:36:31;;;;;;;;;;;;;;;27.47;30.62;99897.28;5076538;28;802;-31
2021/01/24 00:38:56;;;;;;;;;;;;;;;27.47;30.52;99891.88;5093160;28;1066;-32
2021/01/24 00:41:21;;;;;;;;;;;;;;;27.42;30.96;99891.66;5096495;28;719;-35
2021/01/24 00:43:47;;;;;;;;;;;;;;;27.44;31.20;99886.91;5096612;28;1914;-32
2021/01/24 00:46:12;;;;;;;;;;;;;;;27.47;30.78;99888.34;5096904;28;862;-33
2021/01/24 00:48:37;;;;;;;;;;;;;;;27.35;31.28;99875.44;5096500;28;823;-35
2021/01/24 00:51:06;;;;;;;;;;;;;;;27.41;31.03;99865.66;5096775;28;807;-33
2021/01/24 00:53:31;;;;;;;;;;;;;;;27.35;31.28;99866.50;5096412;28;973;-33
2021/01/24 00:55:56;;;;;;;;;;;;;;;27.36;31.12;99868.19;5096376;28;763;-32
2021/01/24 00:58:22;;;;;;;;;;;;;;;27.32;31.12;99880.41;5096661;28;795;-32
2021/01/24 01:00:47;;;;;;;;;;;;;;;27.35;31.35;99877.31;5096736;28;839;-35
2021/01/24 01:03:13;;;;;;;;;;;;;;;27.20;31.58;99869.41;5096090;28;1977;-37
2021/01/24 01:05:38;;;;;;;;;;;;;;;27.19;31.52;99867.75;5096692;28;752;-34
2021/01/24 01:08:10;;;;;;;;;;;;;;;27.20;31.47;99855.88;5096684;28;1001;-30
2021/01/24 01:10:36;;;;;;;;;;;;;;;27.14;31.38;99861.06;5095910;28;845;-32
2021/01/24 01:13:01;;;;;;;;;;;;;;;27.17;30.91;99865.25;5096614;28;826;-32
2021/01/24 01:15:26;;;;;;;;;;;;;;;27.11;31.34;99860.69;5096560;28;816;-37
2021/01/24 01:17:52;;;;;;;;;;;;;;;27.03;31.06;99864.38;5096153;28;1071;-31
2021/01/24 01:20:17;;;;;;;;;;;;;;;27.04;31.30;99851.72;5096557;28;755;-30
2021/01/24 01:22:42;;;;;;;;;;;;;;;26.96;31.20;99847.31;5087820;28;1913;-32
2021/01/24 01:25:08;;;;;;;;;;;;;;;27.00;31.25;99853.97;5075923;28;911;-30
2021/01/24 01:27:33;;;;;;;;;;;;;;;26.92;30.99;99852.28;5076537;28;760;-29
2021/01/24 01:29:58;;;;;;;;;;;;;;;26.91;30.92;99853.31;5076013;28;976;-29
2021/01/24 01:32:24;;;;;;;;;;;;;;;26.92;31.06;99857.69;5075945;28;776;-35
2021/01/24 01:34:49;;;;;;;;;;;;;;;26.96;30.83;99856.22;5075955;28;883;-32
2021/01/24 01:40:17;;;;;;;;;;;;;;;26.87;30.87;99852.91;5093734;28;1043;-32
2021/01/24 01:42:42;;;;;;;;;;;;;;;26.86;30.84;99845.00;5095937;28;1995;-33
2021/01/24 01:45:08;;;;;;;;;;;;;;;26.86;30.84;99845.00;5096131;28;787;-30
2021/01/24 01:47:33;;;;;;;;;;;;;;;26.85;30.80;99859.53;5096069;28;727;-28
2021/01/24 01:49:58;;;;;;;;;;;;;;;26.90;30.70;99852.50;5094880;28;1301;-35
2021/01/24 01:52:24;;;;;;;;;;;;;;;26.91;30.61;99839.81;5095809;28;1032;-30
2021/01/24 01:54:49;;;;;;;;;;;;;;;26.93;30.67;99837.75;5094614;28;739;-31
2021/01/24 01:57:15;;;;;;;;;;;;;;;26.86;30.89;99843.13;5095986;28;799;-31
2021/01/24 01:59:40;;;;;;;;;;;;;;;26.88;30.67;99843.75;5096229;28;823;-31
2021/01/24 02:02:15;;;;;;;;;;;;;;;26.95;30.51;99841.09;5095874;28;768;-30
2021/01/24 02:04:46;;;;;;;;;;;;;;;26.92;30.69;99841.50;5094594;28;1965;-32
2021/01/24 02:07:59;;;;;;;;;;;;;;;26.89;31.03;99839.22;5094667;28;998;-32
2021/01/24 02:10:42;;;;;;;;;;;;;;;26.87;30.83;99841.28;5033421;28;1204;-31
2021/01/24 02:13:14;;;;;;;;;;;;;;;26.80;31.27;99838.56;5037509;28;748;-32
2021/01/24 02:15:41;;;;;;;;;;;;;;;26.90;30.83;99841.69;5080398;28;954;-32
2021/01/24 02:18:06;;;;;;;;;;;;;;;26.86;31.05;99835.03;5097948;28;1048;-32
2021/01/24 02:20:46;;;;;;;;;;;;;;;26.84;31.05;99839.78;5098497;28;791;-32
2021/01/24 02:23:12;;;;;;;;;;;;;;;26.87;30.80;99833.16;5087039;28;1922;-32
2021/01/24 02:25:47;;;;;;;;;;;;;;;26.86;30.78;99826.94;5078466;28;894;-31
2021/01/24 02:28:19;;;;;;;;;;;;;;;26.88;30.54;99827.56;5078171;28;815;-33
2021/01/24 02:30:44;;;;;;;;;;;;;;;26.89;30.97;99821.13;5078060;28;775;-29
2021/01/24 02:33:10;;;;;;;;;;;;;;;26.89;30.83;99831.13;5077323;28;827;-34
2021/01/24 02:35:38;;;;;;;;;;;;;;;26.83;30.93;99818.41;5078960;28;740;-29
2021/01/24 02:38:09;;;;;;;;;;;;;;;26.84;31.08;99803.91;5089663;28;965;-30
2021/01/24 02:40:35;;;;;;;;;;;;;;;26.82;31.03;99804.09;5096644;28;1300;-31
2021/01/24 02:43:01;;;;;;;;;;;;;;;26.53;29.20;99814.19;5098995;28;1913;-29
2021/01/24 02:45:26;;;;;;;;;;;;;;;26.17;27.29;99805.28;5098746;28;863;-26
2021/01/24 02:47:52;;;;;;;;;;;;;;;25.75;27.34;99805.25;5098826;28;799;-26
2021/01/24 02:50:17;;;;;;;;;;;;;;;25.50;27.08;99795.72;5097744;28;775;-26
2021/01/24 02:52:42;;;;;;;;;;;;;;;25.99;27.84;99798.56;5098436;28;1017;-31
2021/01/24 02:55:08;;;;;;;;;;;;;;;26.57;27.75;99795.72;5097274;28;847;-31
2021/01/24 02:57:33;;;;;;;;;;;;;;;27.93;26.18;99789.38;5098716;28;815;-32
2021/01/24 02:59:59;;;;;;;;;;;;;;;28.43;25.23;99793.41;5097729;28;764;-30
2021/01/24 03:02:24;;;;;;;;;;;;;;;28.55;25.46;99788.16;5097359;28;941;-34
2021/01/24 03:04:49;;;;;;;;;;;;;;;28.74;25.06;99785.56;5098503;28;1939;-28
2021/01/24 03:07:33;;;;;;;;;;;;;;;28.93;24.75;99791.03;5098696;28;996;-30
2021/01/24 03:09:58;;;;;;;;;;;;;;;29.16;24.59;99792.38;5098389;28;756;-32
2021/01/24 03:12:24;;;;;;;;;;;;;;;29.31;24.35;99782.03;5098350;28;776;-33
2021/01/24 03:14:50;;;;;;;;;;;;;;;29.52;24.43;99781.84;5097260;28;783;-31
2021/01/24 03:17:15;;;;;;;;;;;;;;;29.73;23.93;99777.91;5096969;28;1074;-32
2021/01/24 03:19:40;;;;;;;;;;;;;;;29.92;23.94;99778.75;5098278;28;747;-31
2021/01/24 03:22:06;;;;;;;;;;;;;;;30.00;23.87;99788.47;5093224;28;957;-33
2021/01/24 03:24:31;;;;;;;;;;;;;;;30.10;23.57;99779.81;5077529;28;1898;-33
2021/01/24 03:26:56;;;;;;;;;;;;;;;30.12;23.27;99780.41;5076425;28;831;-29
2021/01/24 03:29:21;;;;;;;;;;;;;;;29.88;23.36;99780.25;5076929;28;935;-32
2021/01/24 03:31:47;;;;;;;;;;;;;;;29.86;23.78;99778.84;5077857;28;791;-33
2021/01/24 03:34:17;;;;;;;;;;;;;;;30.16;23.74;99759.91;5077562;28;785;-37
2021/01/24 03:36:43;;;;;;;;;;;;;;;30.26;23.42;99753.97;5077802;28;800;-30
2021/01/24 03:39:08;;;;;;;;;;;;;;;30.25;23.46;99746.88;5077139;28;1074;-35
2021/01/24 03:41:33;;;;;;;;;;;;;;;30.34;23.44;99747.41;5077553;28;803;-33
2021/01/24 03:43:59;;;;;;;;;;;;;;;30.12;23.31;99739.72;5077711;28;1901;-31
2021/01/24 03:46:24;;;;;;;;;;;;;;;29.82;23.72;99741.34;5077102;28;874;-37
2021/01/24 03:48:49;;;;;;;;;;;;;;;29.60;24.07;99738.22;5078015;28;771;-30
2021/01/24 03:51:14;;;;;;;;;;;;;;;29.76;23.84;99744.13;5077953;28;771;-31
2021/01/24 03:53:40;;;;;;;;;;;;;;;29.57;23.85;99752.19;5093102;28;954;-32
2021/01/24 03:56:05;;;;;;;;;;;;;;;29.37;24.58;99739.69;5097559;28;783;-28
2021/01/24 03:58:30;;;;;;;;;;;;;;;29.40;24.63;99733.81;5097765;28;966;-31
2021/01/24 04:00:56;;;;;;;;;;;;;;;29.49;24.17;99728.09;5097238;28;752;-33
2021/01/24 04:03:21;;;;;;;;;;;;;;;29.56;24.21;99723.47;5097594;28;1957;-31
2021/01/24 04:05:46;;;;;;;;;;;;;;;29.38;24.28;99724.28;5097504;28;752;-37
2021/01/24 04:08:39;;;;;;;;;;;;;;;29.27;24.43;99720.41;5096703;28;937;-36
2021/01/24 04:11:04;;;;;;;;;;;;;;;29.35;24.52;99720.09;5097531;28;825;-32
2021/01/24 04:13:30;;;;;;;;;;;;;;;29.20;24.83;99731.28;5097215;28;847;-29
2021/01/24 04:15:55;;;;;;;;;;;;;;;29.21;25.02;99727.53;5097446;28;771;-32
2021/01/24 04:18:20;;;;;;;;;;;;;;;28.80;23.82;99730.53;5097341;28;1205;-29
2021/01/24 04:20:46;;;;;;;;;;;;;;;27.42;24.80;99736.88;5097409;28;799;-31
2021/01/24 04:23:11;;;;;;;;;;;;;;;26.79;25.62;99737.06;5084369;28;1955;-33
2021/01/24 04:25:36;;;;;;;;;;;;;;;26.59;25.92;99735.13;5076848;28;787;-27
2021/01/24 04:28:01;;;;;;;;;;;;;;;26.24;26.07;99724.47;5076724;28;870;-29
2021/01/24 04:30:27;;;;;;;;;;;;;;;26.06;26.25;99731.22;5076644;28;732;-30
2021/01/24 04:32:52;;;;;;;;;;;;;;;25.84;26.60;99736.69;5077092;28;787;-30
2021/01/24 04:35:17;;;;;;;;;;;;;;;25.37;27.18;99744.47;5076046;28;862;-30
2021/01/24 04:38:11;;;;;;;;;;;;;;;25.40;27.19;99730.63;5084668;28;954;-33
2021/01/24 04:40:36;;;;;;;;;;;;;;;25.16;27.37;99736.22;5094847;28;1263;-31
2021/01/24 04:43:01;;;;;;;;;;;;;;;25.18;27.66;99741.41;5096898;28;1971;-26
2021/01/24 04:45:27;;;;;;;;;;;;;;;25.19;27.73;99737.72;5095480;28;914;-35
2021/01/24 04:47:52;;;;;;;;;;;;;;;24.22;28.86;99728.03;5096722;28;803;-25
2021/01/24 04:50:18;;;;;;;;;;;;;;;21.74;33.35;99725.16;5095662;28;825;-33
2021/01/24 04:52:44;;;;;;;;;;;;;;;25.05;28.28;99724.16;5096018;28;973;-29
2021/01/24 04:55:09;;;;;;;;;;;;;;;26.83;25.76;99719.41;5096394;28;850;-37
2021/01/24 04:57:35;;;;;;;;;;;;;;;27.57;24.77;99709.63;5097030;28;764;-31
2021/01/24 05:00:00;;;;;;;;;;;;;;;27.28;24.75;99715.28;5096462;28;839;-34
2021/01/24 05:02:25;;;;;;;;;;;;;;;26.93;25.26;99718.16;5096569;28;807;-30
2021/01/24 05:04:50;;;;;;;;;;;;;;;27.28;25.00;99709.06;5095526;28;1901;-33
2021/01/24 05:07:16;;;;;;;;;;;;;;;27.98;24.02;99699.53;5096016;28;949;-30
2021/01/24 05:09:41;;;;;;;;;;;;;;;27.55;24.50;99711.72;5094804;28;878;-31
2021/01/24 05:12:10;;;;;;;;;;;;;;;27.34;24.66;99713.63;5095635;28;862;-29
2021/01/24 05:14:35;;;;;;;;;;;;;;;27.99;24.35;99707.44;5095540;28;862;-30
2021/01/24 05:17:00;;;;;;;;;;;;;;;28.28;24.01;99711.69;5096272;28;1082;-30
2021/01/24 05:19:26;;;;;;;;;;;;;;;28.48;23.55;99707.03;5096720;28;736;-35
2021/01/24 05:21:51;;;;;;;;;;;;;;;28.58;23.46;99714.66;5094606;28;1001;-31
2021/01/24 05:24:17;;;;;;;;;;;;;;;28.71;23.37;99723.75;5076438;28;1906;-31
2021/01/24 05:26:46;;;;;;;;;;;;;;;28.13;23.48;99726.31;5076197;28;755;-32
2021/01/24 05:29:23;;;;;;;;;;;;;;;27.75;24.29;99725.19;5075746;28;803;-32
2021/01/24 05:31:49;;;;;;;;;;;;;;;28.39;23.65;99718.31;5082148;28;867;-31
2021/01/24 05:34:16;;;;;;;;;;;;;;;28.22;24.36;99721.50;5096176;28;771;-33
2021/01/24 05:36:42;;;;;;;;;;;;;;;28.17;24.31;99721.31;5095883;28;786;-32
2021/01/24 05:39:07;;;;;;;;;;;;;;;28.55;23.88;99720.50;5096157;28;1055;-30
2021/01/24 05:41:33;;;;;;;;;;;;;;;28.65;23.62;99728.16;5096332;28;814;-32
2021/01/24 05:43:58;;;;;;;;;;;;;;;28.82;23.43;99724.91;5095839;28;1913;-37
2021/01/24 05:46:26;;;;;;;;;;;;;;;29.01;23.08;99733.94;5097010;28;791;-31
2021/01/24 05:48:51;;;;;;;;;;;;;;;29.11;22.93;99725.34;5098527;28;1509;-32
2021/01/24 05:51:16;;;;;;;;;;;;;;;28.41;23.38;99727.84;5098701;28;843;-41
2021/01/24 05:53:45;;;;;;;;;;;;;;;28.06;23.92;99730.94;5098664;28;1024;-39
2021/01/24 05:56:11;;;;;;;;;;;;;;;28.84;23.25;99730.94;5098468;28;752;-33
2021/01/24 05:58:38;;;;;;;;;;;;;;;29.04;22.88;99725.41;5099437;28;748;-40
2021/01/24 06:01:03;;;;;;;;;;;;;;;29.15;22.65;99723.00;5098848;28;863;-37
2021/01/24 06:03:28;;;;;;;;;;;;;;;28.43;23.27;99719.53;5099605;28;1902;-39
2021/01/24 06:05:54;;;;;;;;;;;;;;;27.95;24.03;99724.31;5098765;28;779;-31
2021/01/24 06:11:12;;;;;;;;;;;;;;;28.91;22.86;99720.88;5097847;28;847;-38
2021/01/24 06:13:37;;;;;;;;;;;;;;;29.05;22.55;99718.09;5098402;28;783;-32
2021/01/24 06:16:11;;;;;;;;;;;;;;;28.84;22.48;99723.63;5099554;28;799;-32
2021/01/24 06:18:43;;;;;;;;;;;;;;;28.39;23.13;99711.03;5095414;28;1171;-39
2021/01/24 06:21:08;;;;;;;;;;;;;;;28.81;23.31;99712.44;5099366;28;843;-31
2021/01/24 06:23:43;;;;;;;;;;;;;;;28.90;22.88;99716.50;5082437;28;1906;-39
2021/01/24 06:26:10;;;;;;;;;;;;;;;28.44;22.34;99591.38;5079334;28;803;-40
2021/01/24 06:28:36;;;;;;;;;;;;;;;28.30;23.53;99713.13;5077529;28;498;-38
2021/01/24 06:31:02;;;;;;;;;;;;;;;27.89;23.83;99714.34;5077450;28;934;-40
2021/01/24 06:33:28;;;;;;;;;;;;;;;28.72;23.31;99717.28;5079381;28;956;-31
2021/01/24 06:35:57;;;;;;;;;;;;;;;28.96;22.74;99723.75;5078258;28;823;-31
2021/01/24 06:38:41;;;;;;;;;;;;;;;28.86;23.26;99723.44;5092725;28;982;-31
2021/01/24 06:41:07;;;;;;;;;;;;;;;28.67;23.36;99722.50;5098935;28;1107;-31
2021/01/24 06:43:36;;;;;;;;;;;;;;;28.75;23.53;99721.41;5098100;28;1976;-36
2021/01/24 06:46:02;;;;;;;;;;;;;;;29.03;22.95;99739.16;5099143;28;790;-30
2021/01/24 06:48:40;;;;;;;;;;;;;;;28.80;22.95;99727.00;5099059;28;895;-31
2021/01/24 06:51:25;;;;;;;;;;;;;;;28.65;23.15;99728.16;5098540;28;851;-32
2021/01/24 06:53:50;;;;;;;;;;;;;;;28.89;23.26;99723.00;5098804;28;1272;-35
2021/01/24 06:56:16;;;;;;;;;;;;;;;28.44;23.58;99716.63;5098638;28;942;-31
2021/01/24 06:58:50;;;;;;;;;;;;;;;28.28;23.52;99727.94;5098098;28;827;-30
2021/01/24 07:01:24;;;;;;;;;;;;;;;28.71;22.99;99729.16;5098627;28;916;-34
2021/01/24 07:04:10;;;;;;;;;;;;;;;28.71;22.92;99735.38;5098841;28;1909;-30
2021/01/24 07:06:37;;;;;;;;;;;;;;;28.33;23.57;99733.53;5087484;28;1805;-34
2021/01/24 07:09:23;;;;;;;;;;;;;;;28.49;23.39;99726.78;5098538;28;950;-41
2021/01/24 07:11:49;;;;;;;;;;;;;;;28.34;23.07;99721.69;5098402;28;803;-31
2021/01/24 07:14:35;;;;;;;;;;;;;;;28.05;23.81;99718.44;5097340;28;867;-29
2021/01/24 07:17:09;;;;;;;;;;;;;;;28.42;23.56;99716.00;5098387;28;1157;-33
2021/01/24 07:19:35;;;;;;;;;;;;;;;29.02;22.76;99727.50;5098309;28;831;-32
2021/01/24 07:22:00;;;;;;;;;;;;;;;28.82;23.46;99735.72;5095499;28;969;-31
2021/01/24 07:24:25;;;;;;;;;;;;;;;28.56;24.10;99738.38;5077991;28;1906;-30
2021/01/24 07:26:53;;;;;;;;;;;;;;;29.05;22.94;99735.16;5078270;28;771;-31
2021/01/24 07:29:19;;;;;;;;;;;;;;;28.89;23.21;99741.09;5076648;28;815;-33
2021/01/24 07:31:44;;;;;;;;;;;;;;;28.55;23.65;99739.44;5079482;28;878;-33
2021/01/24 07:34:09;;;;;;;;;;;;;;;28.99;23.09;99744.19;5098051;28;783;-30
2021/01/24 07:36:34;;;;;;;;;;;;;;;29.05;23.04;99750.56;5097989;28;831;-32
2021/01/24 07:39:15;;;;;;;;;;;;;;;28.77;23.17;99749.94;5078308;28;949;-35
2021/01/24 07:41:43;;;;;;;;;;;;;;;28.49;23.67;99751.16;5077605;28;795;-33
2021/01/24 07:44:08;;;;;;;;;;;;;;;28.69;23.53;99752.91;5077401;28;1984;-33
2021/01/24 07:46:34;;;;;;;;;;;;;;;28.50;23.38;99755.50;5082590;28;890;-35
2021/01/24 07:48:59;;;;;;;;;;;;;;;28.96;23.49;99755.41;5098206;28;819;-34
2021/01/24 07:51:24;;;;;;;;;;;;;;;29.03;22.71;99755.41;5097440;28;764;-30
2021/01/24 07:53:50;;;;;;;;;;;;;;;28.69;23.21;99751.03;5097116;28;918;-36
2021/01/24 07:56:15;;;;;;;;;;;;;;;28.89;22.98;99752.75;5097595;28;744;-31
2021/01/24 07:58:40;;;;;;;;;;;;;;;29.09;22.79;99759.94;5097397;28;773;-32
2021/01/24 08:01:06;;;;;;;;;;;;;;;28.75;22.95;99762.84;5097438;28;890;-31
2021/01/24 08:03:32;;;;;;;;;;;;;;;28.57;23.25;99753.59;5097564;28;1965;-31
2021/01/24 08:06:07;;;;;;;;;;;;;;;28.77;23.00;99762.63;5097144;28;744;-33
2021/01/24 08:11:35;;;;;;;;;;;;;;;28.26;23.71;99752.44;5096639;28;644;-31
2021/01/24 08:14:01;;;;;;;;;;;;;;;28.44;23.44;99749.09;5096858;28;783;-34
2021/01/24 08:16:26;;;;;;;;;;;;;;;28.33;23.70;99733.53;5097321;28;776;-31
2021/01/24 08:18:52;;;;;;;;;;;;;;;28.09;23.97;99736.72;5096903;28;1201;-31
2021/01/24 08:21:17;;;;;;;;;;;;;;;27.87;23.87;99734.31;5095463;28;816;-29
2021/01/24 08:23:44;;;;;;;;;;;;;;;27.73;24.12;99738.09;5080117;28;1918;-29
2021/01/24 08:26:09;;;;;;;;;;;;;;;28.10;23.55;99740.25;5075986;28;736;-36
2021/01/24 08:28:35;;;;;;;;;;;;;;;28.20;23.84;99740.63;5076342;28;881;-30
2021/01/24 08:31:01;;;;;;;;;;;;;;;28.36;23.91;99736.63;5075359;28;811;-31
2021/01/24 08:33:26;;;;;;;;;;;;;;;28.65;23.57;99740.84;5076730;28;806;-33
2021/01/24 08:35:51;;;;;;;;;;;;;;;28.52;23.25;99744.47;5075891;28;831;-33
2021/01/24 08:38:35;;;;;;;;;;;;;;;28.44;23.65;99743.69;5089509;28;1001;-31
2021/01/24 08:41:00;;;;;;;;;;;;;;;28.56;23.65;99746.50;5095375;28;1218;-32
2021/01/24 08:43:25;;;;;;;;;;;;;;;28.66;23.28;99745.22;5096315;28;1972;-27
2021/01/24 08:45:51;;;;;;;;;;;;;;;28.39;23.64;99745.38;5096875;28;800;-30
2021/01/24 08:48:16;;;;;;;;;;;;;;;28.54;23.37;99748.63;5096951;28;867;-30
2021/01/24 08:50:41;;;;;;;;;;;;;;;28.72;23.39;99749.75;5094630;28;871;-31
2021/01/24 08:53:07;;;;;;;;;;;;;;;28.55;23.70;99749.44;5096590;28;887;-32
2021/01/24 08:56:05;;;;;;;;;;;;;;;28.54;23.59;99747.78;5096479;28;803;-30
2021/01/24 08:58:30;;;;;;;;;;;;;;;28.55;23.59;99758.38;5062321;28;1468;-29
2021/01/24 09:01:04;;;;;;;;;;;;;;;28.60;23.44;99750.44;5096736;28;784;-36
2021/01/24 09:03:30;;;;;;;;;;;;;;;28.53;23.73;99749.66;5095992;28;1922;-32
2021/01/24 09:06:11;;;;;;;;;;;;;;;28.47;23.93;99745.94;5096855;28;764;-29
2021/01/24 09:11:40;;;;;;;;;;;;;;;27.63;24.01;99750.16;5095968;28;625;-30
2021/01/24 09:14:06;;;;;;;;;;;;;;;27.94;23.96;99749.69;5096803;28;806;-32
2021/01/24 09:16:31;;;;;;;;;;;;;;;28.58;23.59;99744.41;5096807;28;877;-29
2021/01/24 09:18:56;;;;;;;;;;;;;;;28.83;23.12;99740.91;5095763;28;1082;-26
2021/01/24 09:21:21;;;;;;;;;;;;;;;28.83;22.87;99742.78;5098438;28;867;-34
2021/01/24 09:23:47;;;;;;;;;;;;;;;28.76;23.15;99736.63;5094130;28;1909;-34
2021/01/24 09:26:12;;;;;;;;;;;;;;;29.07;23.05;99724.94;5100552;28;814;-30
2021/01/24 09:28:37;;;;;;;;;;;;;;;29.20;22.73;99737.53;5100637;28;851;-37
2021/01/24 09:31:03;;;;;;;;;;;;;;;29.01;22.79;99739.34;5100425;28;744;-27
2021/01/24 09:33:28;;;;;;;;;;;;;;;29.15;22.80;99748.22;5099198;28;787;-32
2021/01/24 09:35:53;;;;;;;;;;;;;;;29.15;22.62;99734.66;5100151;28;684;-39
2021/01/24 09:38:52;;;;;;;;;;;;;;;28.84;23.28;99739.88;5100066;28;946;-38
2021/01/24 09:41:18;;;;;;;;;;;;;;;29.00;22.90;99735.00;5099634;28;1277;-38
2021/01/24 09:43:43;;;;;;;;;;;;;;;28.94;22.84;99730.44;5100322;28;1979;-34
2021/01/24 09:46:08;;;;;;;;;;;;;;;28.61;23.45;99737.75;5099997;28;863;-30
2021/01/24 09:48:34;;;;;;;;;;;;;;;28.78;23.24;99735.34;5100207;28;725;-32
2021/01/24 09:50:59;;;;;;;;;;;;;;;28.39;23.17;99732.69;5098289;28;1438;-33
2021/01/24 09:53:24;;;;;;;;;;;;;;;28.02;23.79;99737.78;5102361;28;855;-30
2021/01/24 09:55:49;;;;;;;;;;;;;;;27.89;23.98;99739.53;5099169;28;851;-37
2021/01/24 09:58:15;;;;;;;;;;;;;;;27.74;24.27;99737.88;5099892;28;827;-26
2021/01/24 10:00:40;;;;;;;;;;;;;;;28.70;23.14;99758.09;5099746;28;802;-33
2021/01/24 10:03:05;;;;;;;;;;;;;;;29.06;22.68;99763.09;5099746;28;1960;-31
2021/01/24 10:05:30;;;;;;;;;;;;;;;28.14;23.73;99759.59;5100058;28;835;-30
2021/01/24 10:07:56;;;;;;;;;;;;;;;27.76;24.26;99751.16;5099345;28;910;-28
2021/01/24 10:10:21;;;;;;;;;;;;;;;28.53;23.53;99756.94;5099164;28;1016;-29
2021/01/24 10:12:46;;;;;;;;;;;;;;;28.81;23.12;99751.13;5099936;28;755;-29
2021/01/24 10:15:12;;;;;;;;;;;;;;;29.06;22.85;99754.97;5099429;28;815;-30
2021/01/24 10:17:37;;;;;;;;;;;;;;;29.04;23.22;99759.75;5099421;28;1106;-32
2021/01/24 10:20:02;;;;;;;;;;;;;;;29.02;23.32;99761.84;5099540;28;812;-32
2021/01/24 10:22:28;;;;;;;;;;;;;;;29.21;22.80;99763.56;5093079;28;887;-30
2021/01/24 10:24:53;;;;;;;;;;;;;;;28.95;23.10;99767.28;5079019;28;1972;-26
2021/01/24 10:27:18;;;;;;;;;;;;;;;28.97;23.54;99767.94;5082901;28;855;-30
2021/01/24 10:29:44;;;;;;;;;;;;;;;29.28;22.99;99765.41;5099618;28;803;-32
2021/01/24 10:32:09;;;;;;;;;;;;;;;28.48;23.26;99754.88;5098783;28;803;-31
2021/01/24 10:34:34;;;;;;;;;;;;;;;27.95;24.16;99748.63;5099175;28;780;-31
2021/01/24 10:36:59;;;;;;;;;;;;;;;28.40;23.95;99753.25;5098962;28;949;-30
2021/01/24 10:39:25;;;;;;;;;;;;;;;28.64;23.73;99750.84;5099239;28;799;-32
2021/01/24 10:41:50;;;;;;;;;;;;;;;28.52;23.73;99750.69;5098552;28;1232;-39
2021/01/24 10:44:15;;;;;;;;;;;;;;;28.39;23.90;99757.03;5098968;28;1913;-32
2021/01/24 10:46:40;;;;;;;;;;;;;;;28.63;23.72;99757.28;5099153;28;795;-29
2021/01/24 10:49:06;;;;;;;;;;;;;;;28.64;23.37;99752.72;5098262;28;827;-31
2021/01/24 10:51:31;;;;;;;;;;;;;;;28.50;23.76;99760.06;5099199;28;756;-38
2021/01/24 10:53:57;;;;;;;;;;;;;;;28.43;23.98;99755.53;5098601;28;894;-34
2021/01/24 10:56:22;;;;;;;;;;;;;;;28.59;23.71;99753.38;5098382;28;913;-32
2021/01/24 10:58:47;;;;;;;;;;;;;;;28.53;23.63;99751.53;5098284;28;755;-38
2021/01/24 11:01:13;;;;;;;;;;;;;;;27.81;24.26;99758.66;5098215;28;1030;-31
2021/01/24 11:03:38;;;;;;;;;;;;;;;27.54;25.05;99755.97;5098412;28;1951;-34
2021/01/24 11:06:03;;;;;;;;;;;;;;;28.54;24.04;99750.50;5098744;28;767;-31
2021/01/24 11:11:32;;;;;;;;;;;;;;;28.89;23.09;99755.47;5097906;28;657;-31
2021/01/24 11:13:57;;;;;;;;;;;;;;;28.73;23.59;99752.22;5098473;28;819;-26
2021/01/24 11:16:22;;;;;;;;;;;;;;;29.03;23.14;99764.34;5098710;28;893;-38
2021/01/24 11:18:47;;;;;;;;;;;;;;;29.17;22.91;99756.09;5097989;28;1075;-38
2021/01/24 11:21:13;;;;;;;;;;;;;;;28.95;23.09;99742.91;5098399;28;775;-33
2021/01/24 11:23:38;;;;;;;;;;;;;;;28.82;23.39;99731.16;5095784;28;1958;-33
2021/01/24 11:26:03;;;;;;;;;;;;;;;28.89;23.11;99727.56;5098293;28;882;-38
2021/01/24 11:28:28;;;;;;;;;;;;;;;28.99;23.14;99719.81;5098304;28;779;-39
2021/01/24 11:30:54;;;;;;;;;;;;;;;29.10;22.94;99712.84;5098046;28;858;-39
2021/01/24 11:33:19;;;;;;;;;;;;;;;29.24;22.72;99704.59;5097326;28;874;-29
2021/01/24 11:35:44;;;;;;;;;;;;;;;29.34;22.48;99704.91;5097891;28;759;-32
2021/01/24 11:38:10;;;;;;;;;;;;;;;29.37;22.49;99707.19;5097785;28;946;-32
2021/01/24 11:40:35;;;;;;;;;;;;;;;28.80;23.36;99702.63;5097535;28;1189;-31
2021/01/24 11:43:00;;;;;;;;;;;;;;;28.74;23.30;99698.94;5097328;28;1913;-40
2021/01/24 11:45:25;;;;;;;;;;;;;;;28.87;23.17;99711.53;5097395;28;809;-33
2021/01/24 11:47:52;;;;;;;;;;;;;;;29.15;23.05;99709.47;5097364;28;831;-30
2021/01/24 11:50:17;;;;;;;;;;;;;;;29.31;22.77;99711.59;5098035;28;801;-37
2021/01/24 11:52:42;;;;;;;;;;;;;;;29.40;22.71;99712.13;5097419;28;1017;-29
2021/01/24 11:55:08;;;;;;;;;;;;;;;29.46;22.29;99711.25;5097483;28;760;-32
2021/01/24 11:57:33;;;;;;;;;;;;;;;29.41;22.56;99705.66;5097459;28;793;-39
2021/01/24 11:59:58;;;;;;;;;;;;;;;29.28;22.55;99703.13;5097529;28;847;-40
2021/01/24 12:02:25;;;;;;;;;;;;;;;29.33;22.47;99700.53;5097411;28;831;-31
2021/01/24 12:04:50;;;;;;;;;;;;;;;29.02;23.11;99699.56;5097025;28;1901;-40
2021/01/24 12:07:16;;;;;;;;;;;;;;;28.94;22.97;99701.50;5097274;28;957;-29
2021/01/24 12:09:44;;;;;;;;;;;;;;;29.13;22.72;99695.34;5096908;28;799;-29
2021/01/24 12:12:09;;;;;;;;;;;;;;;29.07;22.76;99703.28;5097397;28;776;-33
2021/01/24 12:14:35;;;;;;;;;;;;;;;29.05;22.90;99709.97;5097562;28;743;-40
2021/01/24 12:17:00;;;;;;;;;;;;;;;29.31;22.88;99708.88;5097575;28;1193;-39
2021/01/24 12:19:25;;;;;;;;;;;;;;;29.10;22.70;99712.84;5096692;28;826;-35
2021/01/24 12:21:51;;;;;;;;;;;;;;;29.17;22.96;99710.91;5096222;28;898;-30
2021/01/24 12:24:16;;;;;;;;;;;;;;;28.76;23.47;99717.66;5076453;28;1898;-31
2021/01/24 12:26:43;;;;;;;;;;;;;;;28.82;23.86;99722.19;5076765;28;776;-32
2021/01/24 12:29:08;;;;;;;;;;;;;;;29.61;22.64;99725.53;5075419;28;808;-40
2021/01/24 12:31:33;;;;;;;;;;;;;;;30.03;22.17;99722.13;5076461;28;795;-31
2021/01/24 12:33:59;;;;;;;;;;;;;;;30.24;21.86;99722.72;5076479;28;764;-35
2021/01/24 12:36:24;;;;;;;;;;;;;;;30.29;21.70;99725.56;5084214;28;824;-32
2021/01/24 12:38:58;;;;;;;;;;;;;;;30.37;21.41;99725.25;5096484;28;989;-33
2021/01/24 12:41:24;;;;;;;;;;;;;;;30.51;21.38;99730.47;5096737;28;1217;-32
2021/01/24 12:43:49;;;;;;;;;;;;;;;30.66;21.29;99736.28;5097225;28;1913;-38
2021/01/24 12:46:14;;;;;;;;;;;;;;;30.68;21.31;99730.63;5096472;28;764;-37
2021/01/24 12:48:40;;;;;;;;;;;;;;;30.62;21.46;99731.56;5097095;28;822;-31
2021/01/24 12:51:05;;;;;;;;;;;;;;;30.66;21.33;99725.44;5096922;28;771;-31
2021/01/24 12:53:31;;;;;;;;;;;;;;;30.76;21.08;99730.28;5095810;28;1009;-33
2021/01/24 12:55:56;;;;;;;;;;;;;;;30.83;21.23;99735.66;5096632;28;799;-31
2021/01/24 12:58:21;;;;;;;;;;;;;;;30.81;20.94;99743.22;5096681;28;802;-32
2021/01/24 13:00:46;;;;;;;;;;;;;;;30.75;21.26;99739.50;5096174;28;838;-38
2021/01/24 13:03:12;;;;;;;;;;;;;;;30.88;20.94;99737.69;5096654;28;1913;-38
2021/01/24 13:05:37;;;;;;;;;;;;;;;30.91;20.76;99746.16;5096844;28;811;-36
2021/01/24 13:08:04;;;;;;;;;;;;;;;30.95;20.80;99751.16;5095653;28;910;-35
2021/01/24 13:10:30;;;;;;;;;;;;;;;30.82;21.25;99747.56;5096636;28;842;-31
2021/01/24 13:12:55;;;;;;;;;;;;;;;30.03;21.82;99741.91;5096497;28;736;-31
2021/01/24 13:15:20;;;;;;;;;;;;;;;29.60;22.41;99743.66;5096296;28;775;-33
2021/01/24 13:17:46;;;;;;;;;;;;;;;29.76;22.62;99750.34;5096334;28;1122;-38
2021/01/24 13:20:11;;;;;;;;;;;;;;;29.86;22.14;99743.59;5096607;28;759;-32